createdAt,value
2022-12-08T00:01:15.694Z,74.11
2022-12-08T00:03:43.176Z,74.22
2022-12-08T00:06:35.506Z,74.14
2022-12-08T00:09:21.104Z,73.92
2022-12-08T00:11:49.302Z,73.19
2022-12-08T00:14:16.377Z,72.42
2022-12-08T00:16:43.049Z,72.14
2022-12-08T00:19:09.780Z,72.07
2022-12-08T00:21:36.495Z,72.79
2022-12-08T00:24:03.382Z,72.39
2022-12-08T00:26:31.134Z,72.51
2022-12-08T00:28:58.349Z,72.73
2022-12-08T00:31:26.564Z,72.42
2022-12-08T00:33:54.727Z,72.12
2022-12-08T00:36:21.821Z,71.67
2022-12-08T00:38:54.393Z,71.89
2022-12-08T00:41:41.892Z,72.53
2022-12-08T00:44:09.189Z,72.09
2022-12-08T00:46:42.132Z,71.73
2022-12-08T00:49:09.215Z,72.27
2022-12-08T00:51:36.073Z,71.79
2022-12-08T00:54:04.028Z,71.66
2022-12-08T00:56:31.678Z,71.56
2022-12-08T00:58:59.032Z,71.66
2022-12-08T01:01:30.723Z,71.35
2022-12-08T01:03:58.128Z,71.33
2022-12-08T01:06:25.026Z,70.89
2022-12-08T01:08:51.884Z,71.33
2022-12-08T01:11:19.726Z,70.73
2022-12-08T01:13:46.672Z,70.66
2022-12-08T01:16:24.041Z,70.52
2022-12-08T01:18:50.894Z,70.59
2022-12-08T01:21:17.949Z,70.32
2022-12-08T01:23:44.794Z,69.96
2022-12-08T01:26:12.370Z,69.98
2022-12-08T01:28:39.317Z,69.87
2022-12-08T01:31:10.787Z,69.67
2022-12-08T01:33:37.614Z,69.85
2022-12-08T01:36:05.645Z,69.80
2022-12-08T01:38:32.921Z,70.25
2022-12-08T01:40:59.705Z,69.92
2022-12-08T01:43:29.455Z,69.91
2022-12-08T01:45:56.257Z,70.22
2022-12-08T01:48:27.384Z,69.44
2022-12-08T01:50:54.623Z,69.32
2022-12-08T01:53:26.991Z,68.98
2022-12-08T01:55:56.866Z,69.62
2022-12-08T01:58:27.517Z,70.08
2022-12-08T02:00:54.278Z,69.04
2022-12-08T02:03:42.967Z,69.67
2022-12-08T02:06:10.033Z,70.52
2022-12-08T02:08:39.361Z,70.44
2022-12-08T02:11:09.138Z,70.18
2022-12-08T02:13:36.178Z,70.35
2022-12-08T02:16:09.921Z,70.88
2022-12-08T02:19:29.274Z,70.36
2022-12-08T02:21:55.246Z,70.21
2022-12-08T02:24:34.687Z,70.81
2022-12-08T02:27:22.054Z,70.38
2022-12-08T02:30:05.733Z,70.31
2022-12-08T02:33:01.698Z,70.26
2022-12-08T02:35:48.676Z,70.47
2022-12-08T02:38:44.755Z,70.45
2022-12-08T02:41:57.142Z,70.16
2022-12-08T02:44:48.475Z,71.24
2022-12-08T02:47:20.797Z,70.20
2022-12-08T02:49:47.760Z,70.17
2022-12-08T02:52:14.408Z,70.39
2022-12-08T02:54:44.463Z,69.77
2022-12-08T02:57:30.072Z,69.67
2022-12-08T03:00:03.410Z,69.81
2022-12-08T03:02:36.809Z,69.20
2022-12-08T03:05:08.121Z,68.08
2022-12-08T03:07:49.527Z,68.98
2022-12-08T03:10:29.669Z,69.24
2022-12-08T03:13:01.252Z,69.61
2022-12-08T03:15:33.031Z,69.71
2022-12-08T03:18:01.296Z,70.29
2022-12-08T03:20:46.513Z,70.99
2022-12-08T03:23:14.841Z,70.88
2022-12-08T03:25:44.063Z,70.86
2022-12-08T03:28:12.947Z,71.15
2022-12-08T03:30:44.599Z,71.32
2022-12-08T03:33:24.597Z,72.38
2022-12-08T03:35:52.065Z,71.79
2022-12-08T03:38:18.869Z,71.68
2022-12-08T03:41:06.286Z,71.20
2022-12-08T03:43:32.920Z,71.46
2022-12-08T03:45:59.765Z,72.72
2022-12-08T03:48:26.711Z,72.14
2022-12-08T03:50:53.731Z,72.57
2022-12-08T03:53:20.576Z,71.80
2022-12-08T03:55:47.768Z,71.62
2022-12-08T03:58:14.786Z,71.02
2022-12-08T04:00:41.577Z,70.61
2022-12-08T04:03:08.483Z,71.17
2022-12-08T04:05:35.274Z,71.17
2022-12-08T04:08:02.073Z,71.13
2022-12-08T04:10:29.228Z,71.46
2022-12-08T04:12:56.796Z,71.91
2022-12-08T04:15:23.724Z,71.47
2022-12-08T04:17:50.472Z,71.68
2022-12-08T04:20:17.332Z,71.57
2022-12-08T04:22:44.071Z,71.52
2022-12-08T04:25:10.943Z,70.91
2022-12-08T04:27:37.855Z,70.55
2022-12-08T04:30:05.081Z,70.66
2022-12-08T04:32:32.043Z,70.90
2022-12-08T04:34:58.981Z,72.57
2022-12-08T04:37:28.753Z,71.26
2022-12-08T04:39:55.578Z,71.21
2022-12-08T04:42:42.184Z,71.01
2022-12-08T04:45:10.166Z,71.29
2022-12-08T04:47:37.073Z,71.40
2022-12-08T04:50:04.755Z,71.65
2022-12-08T04:52:31.934Z,70.94
2022-12-08T04:54:58.578Z,71.09
2022-12-08T04:57:25.682Z,71.57
2022-12-08T04:59:56.850Z,71.10
2022-12-08T05:02:23.972Z,71.51
2022-12-08T05:04:50.800Z,70.99
2022-12-08T05:07:17.435Z,70.85
2022-12-08T05:09:45.120Z,70.23
2022-12-08T05:12:11.932Z,70.87
2022-12-08T05:14:38.842Z,70.87
2022-12-08T05:17:09.525Z,71.07
2022-12-08T05:19:36.802Z,69.89
2022-12-08T05:22:03.518Z,70.89
2022-12-08T05:24:30.625Z,71.16
2022-12-08T05:26:57.360Z,72.44
2022-12-08T05:29:24.279Z,72.33
2022-12-08T05:31:51.190Z,72.15
2022-12-08T05:34:18.155Z,72.83
2022-12-08T05:36:45.027Z,72.18
2022-12-08T05:39:13.072Z,72.08
2022-12-08T05:41:39.818Z,71.26
2022-12-08T05:44:06.562Z,71.09
2022-12-08T05:46:33.723Z,71.64
2022-12-08T05:49:01.271Z,72.06
2022-12-08T05:51:28.485Z,71.70
2022-12-08T05:53:55.372Z,71.26
2022-12-08T05:56:23.039Z,71.41
2022-12-08T05:58:50.486Z,72.27
2022-12-08T06:01:28.829Z,72.42
2022-12-08T06:03:56.215Z,72.13
2022-12-08T06:06:23.141Z,71.25
2022-12-08T06:08:49.936Z,71.89
2022-12-08T06:11:24.161Z,72.52
2022-12-08T06:13:51.290Z,74.72
2022-12-08T06:16:18.441Z,74.23
2022-12-08T06:18:45.527Z,77.41
2022-12-08T06:21:16.949Z,77.74
2022-12-08T06:23:43.808Z,75.76
2022-12-08T06:26:12.355Z,75.74
2022-12-08T06:28:39.429Z,75.89
2022-12-08T06:31:11.373Z,75.62
2022-12-08T06:33:38.326Z,76.61
2022-12-08T06:36:05.977Z,75.97
2022-12-08T06:38:32.972Z,76.14
2022-12-08T06:41:00.150Z,76.28
2022-12-08T06:43:27.095Z,74.68
2022-12-08T06:45:54.127Z,75.82
2022-12-08T06:48:20.862Z,76.80
2022-12-08T06:50:48.880Z,76.59
2022-12-08T06:53:16.294Z,75.93
2022-12-08T06:56:02.070Z,75.64
2022-12-08T06:58:28.769Z,75.98
2022-12-08T07:00:57.704Z,76.08
2022-12-08T07:03:24.602Z,74.65
2022-12-08T07:06:00.255Z,73.83
2022-12-08T07:08:30.715Z,74.64
2022-12-08T07:10:57.831Z,74.47
2022-12-08T07:13:24.936Z,74.36
2022-12-08T07:15:52.194Z,75.50
2022-12-08T07:18:19.363Z,75.42
2022-12-08T07:20:46.416Z,74.94
2022-12-08T07:23:17.770Z,75.12
2022-12-08T07:25:45.325Z,74.73
2022-12-08T07:28:12.231Z,74.50
2022-12-08T07:30:39.970Z,74.26
2022-12-08T07:33:06.921Z,74.00
2022-12-08T07:35:35.234Z,76.75
2022-12-08T07:38:05.160Z,73.39
2022-12-08T07:40:32.084Z,73.27
2022-12-08T07:42:59.495Z,74.44
2022-12-08T07:45:31.500Z,76.88
2022-12-08T07:47:59.566Z,79.72
2022-12-08T07:50:28.297Z,78.04
2022-12-08T07:52:55.093Z,76.31
2022-12-08T07:55:24.814Z,78.71
2022-12-08T07:57:51.966Z,76.53
2022-12-08T08:00:19.732Z,77.21
2022-12-08T08:02:46.534Z,75.87
2022-12-08T08:05:13.295Z,77.87
2022-12-08T08:07:42.428Z,77.06
2022-12-08T08:10:14.973Z,83.64
2022-12-08T08:12:44.210Z,80.51
2022-12-08T08:15:11.123Z,81.06
2022-12-08T08:17:38.176Z,82.89
2022-12-08T08:20:09.309Z,82.34
2022-12-08T08:22:36.876Z,83.19
2022-12-08T08:25:07.962Z,82.78
2022-12-08T08:27:34.841Z,83.22
2022-12-08T08:30:02.611Z,81.98
2022-12-08T08:32:35.349Z,81.92
2022-12-08T08:35:05.899Z,82.94
2022-12-08T08:37:32.569Z,83.90
2022-12-08T08:40:03.708Z,84.77
2022-12-08T08:42:31.419Z,83.25
2022-12-08T08:44:58.514Z,82.27
2022-12-08T08:47:26.007Z,82.92
2022-12-08T08:49:58.649Z,81.21
2022-12-08T08:52:28.295Z,80.89
2022-12-08T08:54:58.103Z,81.42
2022-12-08T08:57:26.065Z,83.89
2022-12-08T08:59:56.261Z,80.74
2022-12-08T09:02:23.236Z,80.95
2022-12-08T09:04:50.173Z,78.26
2022-12-08T09:09:58.410Z,78.65
2022-12-08T09:12:28.306Z,77.81
2022-12-08T09:14:55.087Z,79.32
2022-12-08T09:17:21.953Z,77.32
2022-12-08T09:19:48.977Z,78.52
2022-12-08T09:22:16.699Z,76.41
2022-12-08T09:24:44.570Z,78.02
2022-12-08T09:27:11.614Z,76.96
2022-12-08T09:29:40.531Z,76.56
2022-12-08T09:32:07.539Z,76.37
2022-12-08T09:34:36.115Z,74.41
2022-12-08T09:37:03.289Z,76.31
2022-12-08T09:39:30.185Z,75.39
2022-12-08T09:42:33.538Z,77.92
2022-12-08T09:45:06.701Z,73.12
2022-12-08T09:47:37.051Z,75.05
2022-12-08T09:50:05.271Z,74.98
2022-12-08T09:52:35.597Z,74.91
2022-12-08T09:55:05.106Z,74.40
2022-12-08T09:57:33.401Z,75.96
2022-12-08T10:00:03.238Z,76.21
2022-12-08T10:02:31.276Z,75.72
2022-12-08T10:04:59.281Z,77.50
2022-12-08T10:07:45.339Z,72.73
2022-12-08T10:10:30.940Z,74.92
2022-12-08T10:13:01.345Z,75.46
2022-12-08T10:15:36.852Z,73.64
2022-12-08T10:18:18.592Z,74.16
2022-12-08T10:20:52.796Z,77.11
2022-12-08T10:23:23.466Z,76.76
2022-12-08T10:26:15.488Z,74.35
2022-12-08T10:29:05.319Z,72.40
2022-12-08T10:31:32.639Z,73.65
2022-12-08T10:34:21.085Z,74.03
2022-12-08T10:37:09.923Z,72.94
2022-12-08T10:39:47.282Z,72.70
2022-12-08T10:42:23.097Z,71.80
2022-12-08T10:45:10.018Z,71.44
2022-12-08T10:47:44.619Z,72.63
2022-12-08T10:50:19.169Z,72.21
2022-12-08T10:52:46.584Z,72.11
2022-12-08T10:55:41.224Z,71.57
2022-12-08T10:58:23.946Z,72.31
2022-12-08T11:01:17.432Z,70.51
2022-12-08T11:03:55.696Z,72.52
2022-12-08T11:06:44.846Z,73.35
2022-12-08T11:09:16.885Z,73.02
2022-12-08T11:11:56.224Z,71.87
2022-12-08T11:14:25.817Z,73.38
2022-12-08T11:17:04.907Z,71.89
2022-12-08T11:19:37.297Z,71.13
2022-12-08T11:22:20.863Z,71.78
2022-12-08T11:24:56.563Z,72.09
2022-12-08T11:27:23.568Z,71.98
2022-12-08T11:29:50.250Z,71.56
2022-12-08T11:32:17.404Z,72.87
2022-12-08T11:34:49.630Z,74.66
2022-12-08T11:37:19.975Z,73.68
2022-12-08T11:39:53.582Z,75.41
2022-12-08T11:42:24.647Z,71.92
2022-12-08T11:45:14.249Z,74.23
2022-12-08T11:47:45.481Z,73.62
2022-12-08T11:50:28.857Z,74.58
2022-12-08T11:52:57.141Z,73.30
2022-12-08T11:55:49.868Z,74.62
2022-12-08T11:58:44.528Z,72.52
2022-12-08T12:01:28.244Z,73.24
2022-12-08T12:04:13.185Z,74.62
2022-12-08T12:06:54.268Z,73.75
2022-12-08T12:09:27.570Z,74.03
2022-12-08T12:12:19.728Z,75.00
2022-12-08T12:15:13.253Z,75.61
2022-12-08T12:17:44.460Z,75.45
2022-12-08T12:20:24.704Z,77.27
2022-12-08T12:22:59.455Z,77.43
2022-12-08T12:25:27.610Z,76.55
2022-12-08T12:28:03.181Z,76.20
2022-12-08T12:30:58.358Z,75.39
2022-12-08T12:33:29.120Z,75.02
2022-12-08T12:35:56.970Z,75.06
2022-12-08T12:38:45.432Z,75.11
2022-12-08T12:41:51.089Z,75.70
2022-12-08T12:44:20.622Z,75.55
2022-12-08T12:46:48.649Z,77.10
2022-12-08T12:49:36.447Z,76.51
2022-12-08T12:52:04.664Z,76.35
2022-12-08T12:54:32.471Z,76.02
2022-12-08T12:57:06.362Z,78.93
2022-12-08T12:59:43.014Z,75.62
2022-12-08T13:02:33.463Z,78.44
2022-12-08T13:05:18.320Z,76.61
2022-12-08T13:07:58.821Z,77.36
2022-12-08T13:10:29.837Z,75.86
2022-12-08T13:13:20.523Z,75.09
2022-12-08T13:15:53.398Z,74.74
2022-12-08T13:18:47.249Z,73.84
2022-12-08T13:21:21.348Z,75.73
2022-12-08T13:23:51.756Z,77.42
2022-12-08T13:26:25.709Z,75.07
2022-12-08T13:29:01.838Z,75.24
2022-12-08T13:31:50.094Z,76.48
2022-12-08T13:34:32.799Z,74.53
2022-12-08T13:37:12.106Z,73.20
2022-12-08T13:39:51.924Z,78.07
2022-12-08T13:42:25.167Z,78.48
2022-12-08T13:45:21.780Z,77.27
2022-12-08T13:57:03.984Z,76.38
2022-12-08T13:59:18.817Z,76.01
2022-12-08T14:01:47.633Z,76.22
2022-12-08T14:07:07.540Z,81.56
2022-12-08T14:09:54.566Z,82.38
2022-12-08T14:12:31.511Z,82.20
2022-12-08T14:15:07.837Z,81.62
2022-12-08T14:17:39.806Z,80.50
2022-12-08T14:20:13.056Z,83.02
2022-12-08T14:22:43.070Z,83.22
2022-12-08T14:25:13.856Z,84.43
2022-12-08T14:27:40.572Z,86.33
2022-12-08T14:30:16.622Z,81.57
2022-12-08T14:32:52.825Z,82.74
2022-12-08T14:35:20.108Z,84.88
2022-12-08T14:37:53.396Z,81.73
2022-12-08T14:40:48.602Z,83.86
2022-12-08T14:43:16.795Z,82.76
2022-12-08T14:45:45.633Z,83.37
2022-12-08T14:48:31.146Z,84.74
2022-12-08T14:51:00.121Z,82.95
2022-12-08T14:53:29.769Z,82.81
2022-12-08T14:55:56.814Z,84.08
2022-12-08T14:58:29.627Z,83.08
2022-12-08T15:00:58.607Z,82.96
2022-12-08T15:03:30.519Z,83.37
2022-12-08T15:05:58.707Z,84.43
2022-12-08T15:08:25.789Z,83.53
2022-12-08T15:11:15.016Z,83.16
2022-12-08T15:13:46.515Z,82.93
2022-12-08T15:16:29.727Z,84.38
2022-12-08T15:19:02.726Z,80.90
2022-12-08T15:21:31.623Z,80.80
2022-12-08T15:23:58.596Z,83.66
2022-12-08T15:26:27.280Z,83.18
2022-12-08T15:28:55.204Z,83.16
2022-12-08T15:31:22.349Z,80.40
2022-12-08T15:33:51.215Z,81.81
2022-12-08T15:36:17.956Z,80.78
2022-12-08T15:38:45.044Z,79.89
2022-12-08T15:41:15.114Z,79.19
2022-12-08T15:43:42.620Z,79.98
2022-12-08T15:46:09.519Z,79.30
2022-12-08T15:48:39.473Z,78.68
2022-12-08T15:51:06.200Z,78.51
2022-12-08T15:53:33.055Z,77.80
2022-12-08T15:56:26.923Z,76.87
2022-12-08T15:58:54.765Z,76.74
2022-12-08T16:01:22.371Z,76.56
2022-12-08T16:09:40.249Z,78.79
2022-12-08T16:12:57.185Z,77.46
2022-12-08T16:15:50.088Z,77.24
2022-12-08T16:18:08.070Z,78.34
2022-12-08T16:23:45.226Z,78.04
2022-12-08T16:27:21.784Z,77.93
2022-12-08T16:29:18.909Z,77.21
2022-12-08T16:31:46.420Z,76.99
2022-12-08T16:34:13.512Z,77.83
2022-12-08T16:36:43.058Z,77.72
2022-12-08T16:39:13.223Z,77.56
2022-12-08T16:41:58.524Z,80.22
2022-12-08T16:44:25.487Z,78.20
2022-12-08T16:46:52.206Z,79.17
2022-12-08T16:49:18.911Z,77.56
2022-12-08T16:51:48.132Z,78.14
2022-12-08T16:54:14.931Z,79.69
2022-12-08T16:56:46.817Z,79.75
2022-12-08T16:59:13.455Z,78.58
2022-12-08T17:01:40.819Z,79.82
2022-12-08T17:04:30.576Z,80.63
2022-12-08T17:06:55.080Z,79.66
2022-12-08T17:09:21.844Z,79.94
2022-12-08T17:11:48.662Z,78.76
2022-12-08T17:14:15.434Z,78.08
2022-12-08T17:16:42.841Z,78.60
2022-12-08T17:19:09.827Z,80.00
2022-12-08T17:21:36.671Z,78.32
2022-12-08T17:24:03.521Z,77.88
2022-12-08T17:26:30.344Z,76.04
2022-12-08T17:29:01.391Z,74.61
2022-12-08T17:31:30.220Z,77.03
2022-12-08T17:34:04.618Z,76.64
2022-12-08T17:36:31.370Z,76.63
2022-12-08T17:39:01.543Z,77.57
2022-12-08T17:41:29.219Z,76.66
2022-12-08T17:43:56.120Z,77.26
2022-12-08T17:46:23.332Z,75.76
2022-12-08T17:48:50.422Z,79.74
2022-12-08T17:51:22.154Z,78.64
2022-12-08T17:53:48.898Z,77.01
2022-12-08T17:56:20.381Z,77.34
2022-12-08T17:58:51.331Z,78.34
2022-12-08T18:01:22.599Z,78.90
2022-12-08T18:03:49.850Z,78.52
2022-12-08T18:06:17.881Z,79.47
2022-12-08T18:08:44.774Z,77.89
2022-12-08T18:11:15.446Z,78.31
2022-12-08T18:13:42.342Z,77.76
2022-12-08T18:16:11.827Z,77.97
2022-12-08T18:18:38.910Z,76.61
2022-12-08T18:21:08.327Z,75.05
2022-12-08T18:23:37.302Z,74.85
2022-12-08T18:26:05.182Z,75.93
2022-12-08T18:28:34.386Z,74.02
2022-12-08T18:31:01.529Z,75.18
2022-12-08T18:33:28.281Z,73.89
2022-12-08T18:35:55.048Z,73.83
2022-12-08T18:38:21.945Z,73.58
2022-12-08T18:40:49.224Z,73.37
2022-12-08T18:43:15.958Z,73.82
2022-12-08T18:45:43.581Z,72.94
2022-12-08T18:48:10.439Z,72.56
2022-12-08T18:50:37.092Z,74.67
2022-12-08T18:53:03.942Z,75.38
2022-12-08T18:55:30.654Z,76.38
2022-12-08T18:57:57.268Z,75.75
2022-12-08T19:00:24.808Z,75.20
2022-12-08T19:02:51.636Z,75.75
2022-12-08T19:05:18.836Z,75.63
2022-12-08T19:07:45.944Z,77.05
2022-12-08T19:10:13.281Z,79.30
2022-12-08T19:12:40.040Z,78.81
2022-12-08T19:15:07.061Z,79.28
2022-12-08T19:17:34.028Z,80.08
2022-12-08T19:20:00.877Z,81.19
2022-12-08T19:22:27.803Z,80.20
2022-12-08T19:24:54.426Z,81.18
2022-12-08T19:27:21.466Z,80.85
2022-12-08T19:29:48.132Z,80.92
2022-12-08T19:32:15.062Z,82.82
2022-12-08T19:34:42.245Z,81.49
2022-12-08T19:37:13.000Z,83.12
2022-12-08T19:39:58.613Z,83.17
2022-12-08T19:42:44.099Z,83.93
2022-12-08T19:45:14.282Z,83.02
2022-12-08T19:47:41.631Z,80.30
2022-12-08T19:50:28.633Z,80.72
2022-12-08T19:52:56.245Z,80.10
2022-12-08T19:55:24.030Z,83.49
2022-12-08T19:57:51.069Z,82.76
2022-12-08T20:00:19.334Z,81.33
2022-12-08T20:02:46.448Z,80.86
2022-12-08T20:05:13.788Z,82.62
2022-12-08T20:07:40.887Z,82.11
2022-12-08T20:10:10.598Z,81.82
2022-12-08T20:12:37.343Z,81.43
2022-12-08T20:15:04.130Z,82.05
2022-12-08T20:17:31.157Z,80.58
2022-12-08T20:20:00.500Z,80.66
2022-12-08T20:22:29.343Z,79.89
2022-12-08T20:25:00.686Z,80.67
2022-12-08T20:27:29.342Z,79.03
2022-12-08T20:29:56.051Z,80.38
2022-12-08T20:32:23.103Z,80.29
2022-12-08T20:34:49.991Z,78.69
2022-12-08T20:37:16.675Z,80.72
2022-12-08T20:39:43.534Z,79.31
2022-12-08T20:42:13.060Z,79.50
2022-12-08T20:44:44.587Z,78.58
2022-12-08T20:47:12.561Z,80.05
2022-12-08T20:49:40.010Z,80.33
2022-12-08T20:52:07.985Z,81.66
2022-12-08T20:54:35.718Z,79.93
2022-12-08T20:57:02.697Z,80.25
2022-12-08T20:59:34.217Z,81.45
2022-12-08T21:02:01.381Z,80.57
2022-12-08T21:04:28.292Z,80.51
2022-12-08T21:06:55.711Z,81.37
2022-12-08T21:09:23.108Z,81.02
2022-12-08T21:11:49.912Z,79.51
2022-12-08T21:14:17.063Z,78.85
2022-12-08T21:16:44.121Z,80.91
2022-12-08T21:19:13.106Z,81.27
2022-12-08T21:21:39.936Z,81.60
2022-12-08T21:24:07.202Z,79.67
2022-12-08T21:26:34.514Z,82.24
2022-12-08T21:29:01.230Z,80.44
2022-12-08T21:31:29.816Z,78.29
2022-12-08T21:33:56.789Z,80.08
2022-12-08T21:36:24.804Z,82.16
2022-12-08T21:38:51.923Z,81.05
2022-12-08T21:41:38.445Z,82.73
2022-12-08T21:44:06.019Z,82.94
2022-12-08T21:46:33.126Z,82.75
2022-12-08T21:49:00.258Z,85.62
2022-12-08T21:51:27.155Z,83.80
2022-12-08T21:53:54.480Z,82.26
2022-12-08T21:56:21.373Z,82.63
2022-12-08T21:58:48.255Z,84.22
2022-12-08T22:01:15.323Z,82.98
2022-12-08T22:03:42.435Z,80.74
2022-12-08T22:06:10.585Z,80.02
2022-12-08T22:08:37.818Z,79.58
2022-12-08T22:11:05.304Z,79.73
2022-12-08T22:13:34.658Z,79.15
2022-12-08T22:16:03.304Z,78.49
2022-12-08T22:18:30.356Z,78.12
2022-12-08T22:20:57.268Z,78.72
2022-12-08T22:23:24.349Z,78.25
2022-12-08T22:26:00.986Z,77.59
2022-12-08T22:28:28.356Z,77.86
2022-12-08T22:30:55.006Z,78.29
2022-12-08T22:33:24.094Z,77.51
2022-12-08T22:36:08.142Z,79.56
2022-12-08T22:38:37.350Z,80.94
2022-12-08T22:41:04.882Z,82.90
2022-12-08T22:43:31.942Z,81.59
2022-12-08T22:45:58.874Z,80.57
2022-12-08T22:48:25.719Z,82.64
2022-12-08T22:50:57.898Z,81.66
2022-12-08T22:53:24.968Z,80.91
2022-12-08T22:55:51.826Z,83.27
2022-12-08T22:58:19.039Z,81.75
2022-12-08T23:00:46.394Z,80.74
2022-12-08T23:03:13.692Z,80.86
2022-12-08T23:05:41.039Z,79.90
2022-12-08T23:08:08.825Z,79.88
2022-12-08T23:10:36.309Z,79.78
2022-12-08T23:13:04.220Z,78.15
2022-12-08T23:15:31.579Z,79.41
2022-12-08T23:17:58.676Z,78.96
2022-12-08T23:20:25.739Z,79.70
2022-12-08T23:22:52.548Z,80.36
2022-12-08T23:25:19.985Z,79.16
2022-12-08T23:27:47.116Z,79.05
2022-12-08T23:30:14.469Z,77.84
2022-12-08T23:32:41.728Z,77.84
2022-12-08T23:35:09.493Z,77.93
2022-12-08T23:37:36.285Z,77.22
2022-12-08T23:40:04.094Z,78.43
2022-12-08T23:42:31.021Z,79.71
2022-12-08T23:44:57.926Z,77.81
2022-12-08T23:47:24.859Z,78.58
2022-12-08T23:49:52.142Z,78.92
2022-12-08T23:52:18.782Z,79.75
2022-12-08T23:54:45.501Z,78.38
2022-12-08T23:57:12.370Z,77.09
2022-12-08T23:59:39.135Z,77.94
